Time;durP1;ratioP1;P1;durP2;ratioP2;P2;SDS_P1;SDS_P2;PMS_P1;PMS_P2;Temp;Humidity;BMP_temperature;BMP_pressure;BME280_temperature;BME280_humidity;BME280_pressure;Samples;Min_cycle;Max_cycle;Signal;HPM_P1;HPM_P2
2022/10/06 00:02:08;;;;;;;0.00;0.00;;;;;;;11.34;70.55;101304.25;7362802;19;20010;-58
2022/10/06 00:04:34;;;;;;;0.00;0.00;;;;;;;11.34;70.53;101300.75;7363546;19;20017;-58
2022/10/06 00:06:59;;;;;;;0.00;0.00;;;;;;;11.34;70.81;101303.38;7363944;19;20089;-59
2022/10/06 00:09:25;;;;;;;0.00;0.00;;;;;;;11.36;70.02;101301.63;7364162;19;20007;-59
2022/10/06 00:11:50;;;;;;;0.00;0.00;;;;;;;11.35;70.85;101299.88;7360081;19;20095;-59
2022/10/06 00:14:15;;;;;;;0.00;0.00;;;;;;;11.36;70.49;101306.84;7362948;19;20007;-59
2022/10/06 00:16:41;;;;;;;0.00;0.00;;;;;;;11.37;70.45;101293.75;7361378;19;20034;-59
2022/10/06 00:19:06;;;;;;;0.00;0.00;;;;;;;11.33;69.97;101286.84;7361279;19;20019;-58
2022/10/06 00:21:32;;;;;;;0.00;0.00;;;;;;;11.39;70.14;101301.56;7363129;19;20017;-58
2022/10/06 00:23:57;;;;;;;0.00;0.00;;;;;;;11.40;70.21;101298.03;7361382;19;19999;-58
2022/10/06 00:26:23;;;;;;;0.00;0.00;;;;;;;11.39;70.09;101296.31;7363636;19;20019;-57
2022/10/06 00:28:48;;;;;;;0.00;0.00;;;;;;;11.38;70.49;101295.47;7361773;19;20083;-58
2022/10/06 00:31:15;;;;;;;0.00;0.00;;;;;;;11.44;70.35;101310.19;7364070;19;20010;-59
2022/10/06 00:33:41;;;;;;;0.10;0.10;;;;;;;11.48;70.60;101327.56;7361716;19;20003;-58
2022/10/06 00:36:07;;;;;;;0.08;0.08;;;;;;;11.49;70.25;101318.81;7362732;19;20006;-59
2022/10/06 00:38:32;;;;;;;0.00;0.00;;;;;;;11.49;70.85;101313.59;7361875;19;20010;-58
2022/10/06 00:40:58;;;;;;;0.00;0.00;;;;;;;11.52;70.45;101324.00;7363565;19;19998;-59
2022/10/06 00:43:45;;;;;;;0.00;0.00;;;;;;;11.53;70.12;101315.28;7361760;19;20069;-58
2022/10/06 00:46:34;;;;;;;0.00;0.00;;;;;;;11.49;70.13;101312.72;7362097;19;20040;-59
2022/10/06 00:49:11;;;;;;;0.00;0.00;;;;;;;11.45;70.39;101314.53;7361498;19;20372;-59
2022/10/06 00:51:41;;;;;;;0.00;0.00;;;;;;;11.55;70.13;101333.53;7361080;19;20815;-58
2022/10/06 00:54:07;;;;;;;0.00;0.00;;;;;;;11.54;70.01;101326.59;7360422;19;20848;-58
2022/10/06 00:56:33;;;;;;;0.00;0.00;;;;;;;11.54;70.36;101322.22;7362850;19;20010;-58
2022/10/06 00:58:58;;;;;;;0.00;0.00;;;;;;;11.54;70.75;101324.84;7360030;19;20009;-58
2022/10/06 01:01:25;;;;;;;0.00;0.00;;;;;;;11.53;70.83;101320.50;7362367;19;20010;-58
2022/10/06 01:03:59;;;;;;;0.00;0.00;;;;;;;11.56;70.60;101314.38;7360057;19;20024;-58
2022/10/06 01:06:24;;;;;;;0.00;0.00;;;;;;;11.55;70.06;101313.47;7361496;19;20014;-59
2022/10/06 01:08:51;;;;;;;0.00;0.00;;;;;;;11.56;70.42;101323.06;7359839;19;22247;-58
2022/10/06 01:11:16;;;;;;;0.00;0.00;;;;;;;11.57;70.37;101332.66;7362464;19;20475;-59
2022/10/06 01:13:44;;;;;;;0.08;0.08;;;;;;;11.58;70.49;101329.13;7359522;19;21599;-59
2022/10/06 01:16:23;;;;;;;0.00;0.00;;;;;;;11.53;70.22;101314.41;7361389;19;20082;-58
2022/10/06 01:18:53;;;;;;;0.00;0.00;;;;;;;11.60;69.98;101326.47;7360225;19;20014;-58
2022/10/06 01:21:21;;;;;;;0.00;0.00;;;;;;;11.60;70.08;101327.34;7361553;19;20066;-59
2022/10/06 01:23:48;;;;;;;0.00;0.00;;;;;;;11.61;69.90;101329.09;7359976;19;20395;-58
2022/10/06 01:26:15;;;;;;;0.00;0.00;;;;;;;11.61;70.09;101326.47;7362180;19;20015;-59
2022/10/06 01:28:41;;;;;;;0.10;0.10;;;;;;;11.62;70.03;101341.28;7360939;19;20214;-58
2022/10/06 01:31:08;;;;;;;0.10;0.10;;;;;;;11.62;70.19;101330.81;7361217;19;20094;-59
2022/10/06 01:33:33;;;;;;;0.00;0.00;;;;;;;11.64;70.04;101322.94;7360435;19;20010;-59
2022/10/06 01:35:58;;;;;;;0.00;0.00;;;;;;;11.65;70.22;101335.97;7358110;19;20010;-58
2022/10/06 01:38:24;;;;;;;0.00;0.00;;;;;;;11.69;70.05;101324.56;7359115;19;20486;-57
2022/10/06 01:40:51;;;;;;;0.00;0.00;;;;;;;11.73;70.27;101321.91;7358348;19;20006;-57
2022/10/06 01:43:17;;;;;;;0.00;0.00;;;;;;;11.75;70.09;101338.44;7361869;19;20762;-58
2022/10/06 01:45:42;;;;;;;0.00;0.00;;;;;;;11.77;70.41;101332.31;7359069;19;20038;-57
2022/10/06 01:48:08;;;;;;;0.03;0.03;;;;;;;11.75;70.24;101309.66;7361503;19;20011;-57
2022/10/06 01:50:33;;;;;;;0.00;0.00;;;;;;;11.82;70.20;101311.34;7357982;19;20023;-58
2022/10/06 01:52:59;;;;;;;0.00;0.00;;;;;;;11.83;70.13;101315.66;7359717;19;20085;-59
2022/10/06 01:55:25;;;;;;;0.00;0.00;;;;;;;11.86;69.83;101334.81;7356575;19;20034;-59
2022/10/06 01:57:51;;;;;;;0.03;0.03;;;;;;;11.87;69.67;101328.66;7351787;19;20026;-58
2022/10/06 02:00:17;;;;;;;0.00;0.00;;;;;;;11.90;70.05;101327.72;7362201;19;20003;-58
2022/10/06 02:02:43;;;;;;;0.10;0.10;;;;;;;11.91;69.57;101330.34;7363345;19;20013;-58
2022/10/06 02:05:09;;;;;;;0.03;0.03;;;;;;;11.94;69.51;101345.97;7358426;19;20013;-58
2022/10/06 02:07:35;;;;;;;0.10;0.10;;;;;;;11.86;69.57;101313.88;7361645;19;20014;-59
2022/10/06 02:10:01;;;;;;;0.00;0.00;;;;;;;11.96;69.93;101325.00;7360267;19;20006;-59
2022/10/06 02:12:26;;;;;;;0.00;0.00;;;;;;;12.01;69.77;101325.78;7363106;19;20006;-58
2022/10/06 02:14:52;;;;;;;0.00;0.00;;;;;;;12.03;69.56;101324.00;7360317;19;22464;-58
2022/10/06 02:17:17;;;;;;;0.00;0.00;;;;;;;12.02;69.47;101319.69;7362103;19;19998;-58
2022/10/06 02:19:42;;;;;;;0.00;0.00;;;;;;;12.05;69.41;101319.59;7357669;19;20006;-59
2022/10/06 02:22:08;;;;;;;0.00;0.00;;;;;;;12.07;69.34;101302.13;7361179;19;20009;-59
2022/10/06 02:24:33;;;;;;;0.00;0.00;;;;;;;12.08;69.17;101303.84;7360320;19;20007;-59
2022/10/06 02:26:59;;;;;;;0.00;0.00;;;;;;;12.12;69.58;101310.75;7366520;19;20104;-58
2022/10/06 02:29:24;;;;;;;0.00;0.00;;;;;;;12.12;69.11;101295.03;7366563;19;20074;-59
2022/10/06 02:31:51;;;;;;;0.00;0.00;;;;;;;12.16;69.13;101299.31;7364601;19;20010;-58
2022/10/06 02:34:16;;;;;;;0.00;0.00;;;;;;;12.18;69.63;101304.53;7368586;19;20091;-59
2022/10/06 02:36:41;;;;;;;0.00;0.00;;;;;;;12.18;69.47;101305.41;7363831;19;20030;-59
2022/10/06 02:39:07;;;;;;;0.00;0.00;;;;;;;12.21;69.61;101301.84;7365151;19;20454;-58
2022/10/06 02:41:32;;;;;;;0.00;0.00;;;;;;;12.23;69.29;101301.81;7363203;19;20014;-59
2022/10/06 02:43:58;;;;;;;0.00;0.00;;;;;;;12.24;69.41;101303.53;7367428;19;20002;-59
2022/10/06 02:46:23;;;;;;;0.00;0.00;;;;;;;12.26;69.16;101306.97;7363367;19;20017;-58
2022/10/06 02:48:50;;;;;;;0.00;0.00;;;;;;;12.28;69.44;101305.22;7367765;19;20848;-58
2022/10/06 02:51:17;;;;;;;0.00;0.00;;;;;;;12.31;69.28;101306.00;7365423;19;20026;-58
2022/10/06 02:53:44;;;;;;;0.00;0.00;;;;;;;12.29;69.31;101306.94;7368413;19;20011;-56
2022/10/06 02:56:18;;;;;;;0.00;0.00;;;;;;;12.34;69.61;101310.31;7367339;19;20003;-57
2022/10/06 02:58:46;;;;;;;0.00;0.00;;;;;;;12.35;69.40;101314.66;7366135;19;20037;-59
2022/10/06 03:01:21;;;;;;;0.00;0.00;;;;;;;12.39;69.72;101296.25;7365689;19;20005;-58
2022/10/06 03:03:47;;;;;;;0.00;0.00;;;;;;;12.38;69.49;101312.00;7359515;19;20027;-58
2022/10/06 03:06:23;;;;;;;0.00;0.00;;;;;;;12.42;69.75;101314.53;7366407;19;20972;-58
2022/10/06 03:09:04;;;;;;;0.00;0.00;;;;;;;12.50;69.69;101311.72;7365622;19;20006;-58
2022/10/06 03:11:32;;;;;;;0.00;0.00;;;;;;;12.50;69.75;101319.59;7367639;19;20354;-58
2022/10/06 03:13:58;;;;;;;0.00;0.00;;;;;;;12.52;69.41;101314.31;7365230;19;20014;-58
2022/10/06 03:16:26;;;;;;;0.00;0.00;;;;;;;12.56;69.60;101311.59;7365956;19;20758;-59
2022/10/06 03:18:53;;;;;;;0.03;0.03;;;;;;;12.59;69.65;101316.78;7363944;19;20014;-59
2022/10/06 03:21:21;;;;;;;0.00;0.00;;;;;;;12.61;69.27;101308.88;7362060;19;20078;-57
2022/10/06 03:23:48;;;;;;;0.00;0.00;;;;;;;12.60;69.56;101313.25;7369448;19;20027;-59
2022/10/06 03:26:16;;;;;;;0.10;0.10;;;;;;;12.55;69.62;101299.41;7365449;19;20019;-58
2022/10/06 03:28:42;;;;;;;0.00;0.00;;;;;;;12.60;69.49;101296.69;7367241;19;20010;-59
2022/10/06 03:31:08;;;;;;;0.00;0.00;;;;;;;12.61;69.66;101303.63;7367325;19;20027;-58
2022/10/06 03:33:33;;;;;;;0.00;0.00;;;;;;;12.61;68.99;101293.16;7365309;19;20018;-58
2022/10/06 03:36:15;;;;;;;0.00;0.00;;;;;;;12.63;69.49;101312.34;7363644;19;20022;-59
2022/10/06 03:38:40;;;;;;;0.00;0.00;;;;;;;12.62;69.53;101316.72;7368024;19;20014;-58
2022/10/06 03:41:14;;;;;;;0.08;0.08;;;;;;;12.64;69.13;101314.06;7367006;19;26033;-59
2022/10/06 03:43:42;;;;;;;0.00;0.00;;;;;;;12.62;69.22;101306.25;7368096;19;20010;-57
2022/10/06 03:46:11;;;;;;;0.00;0.00;;;;;;;12.63;69.25;101313.22;7365239;19;20017;-57
2022/10/06 03:48:37;;;;;;;0.00;0.00;;;;;;;12.60;69.67;101308.03;7366571;19;20653;-57
2022/10/06 03:51:07;;;;;;;0.00;0.00;;;;;;;12.63;69.53;101310.59;7365637;19;20010;-58
2022/10/06 03:53:33;;;;;;;0.00;0.00;;;;;;;12.65;69.66;101326.25;7363129;19;20014;-57
2022/10/06 03:55:59;;;;;;;0.00;0.00;;;;;;;12.66;70.16;101313.13;7366176;19;20026;-57
2022/10/06 03:58:25;;;;;;;0.00;0.00;;;;;;;12.67;70.11;101325.34;7366394;19;20746;-58
2022/10/06 04:01:01;;;;;;;0.00;0.00;;;;;;;12.67;70.08;101313.97;7365217;19;20030;-57
2022/10/06 04:03:26;;;;;;;0.00;0.00;;;;;;;12.77;70.39;101330.38;7366536;19;20010;-58
2022/10/06 04:05:53;;;;;;;0.00;0.00;;;;;;;12.74;70.54;101315.59;7365927;19;20014;-58
2022/10/06 04:08:19;;;;;;;0.00;0.00;;;;;;;12.83;70.42;101317.16;7365813;19;20070;-58
2022/10/06 04:10:44;;;;;;;0.00;0.00;;;;;;;12.86;70.64;101311.81;7366649;19;20085;-59
2022/10/06 04:13:09;;;;;;;0.10;0.10;;;;;;;12.86;70.90;101309.22;7366657;19;20101;-58
2022/10/06 04:15:35;;;;;;;0.00;0.00;;;;;;;12.87;71.00;101317.03;7365525;19;20469;-59
2022/10/06 04:18:00;;;;;;;0.00;0.00;;;;;;;12.90;70.21;101316.13;7366313;19;20018;-58
2022/10/06 04:20:26;;;;;;;0.00;0.00;;;;;;;12.90;70.90;101316.13;7366806;19;20010;-58
2022/10/06 04:22:51;;;;;;;0.00;0.00;;;;;;;12.90;70.66;101323.97;7365573;19;20474;-59
2022/10/06 04:25:17;;;;;;;0.00;0.00;;;;;;;12.93;70.51;101316.06;7365314;19;20002;-57
2022/10/06 04:27:42;;;;;;;0.10;0.10;;;;;;;12.96;70.46;101327.31;7365722;19;20558;-58
2022/10/06 04:30:08;;;;;;;0.00;0.00;;;;;;;12.99;70.79;101339.50;7365576;19;20010;-58
2022/10/06 04:32:34;;;;;;;0.05;0.05;;;;;;;13.01;70.98;101342.94;7364263;19;20018;-58
2022/10/06 04:34:59;;;;;;;0.00;0.00;;;;;;;13.02;71.03;101336.78;7366921;19;20006;-59
2022/10/06 04:37:24;;;;;;;0.00;0.00;;;;;;;13.04;70.93;101335.03;7366079;19;20002;-58
2022/10/06 04:39:50;;;;;;;0.00;0.00;;;;;;;13.05;71.06;101336.75;7365362;19;20824;-58
2022/10/06 04:42:15;;;;;;;0.00;0.00;;;;;;;13.09;70.75;101343.66;7363456;19;19999;-58
2022/10/06 04:44:41;;;;;;;0.00;0.00;;;;;;;13.04;70.96;101329.78;7367183;19;20035;-58
2022/10/06 04:47:06;;;;;;;0.00;0.00;;;;;;;13.11;70.47;101349.69;7364577;19;20639;-58
2022/10/06 04:49:32;;;;;;;0.00;0.00;;;;;;;12.96;70.84;101313.34;7362770;19;20011;-58
2022/10/06 04:51:57;;;;;;;0.05;0.05;;;;;;;13.11;70.59;101335.72;7363388;19;20017;-59
2022/10/06 04:54:22;;;;;;;0.00;0.00;;;;;;;13.11;70.79;101341.84;7364683;19;20104;-59
2022/10/06 04:56:48;;;;;;;0.00;0.00;;;;;;;13.11;70.98;101347.09;7360691;19;20057;-57
2022/10/06 04:59:14;;;;;;;0.03;0.03;;;;;;;13.12;70.98;101361.91;7366117;19;20006;-58
2022/10/06 05:01:39;;;;;;;0.00;0.00;;;;;;;13.11;70.87;101336.59;7364499;19;20022;-58
2022/10/06 05:04:05;;;;;;;0.00;0.00;;;;;;;13.10;71.09;101350.59;7365740;19;20006;-58
2022/10/06 05:06:33;;;;;;;0.00;0.00;;;;;;;13.13;70.66;101354.94;7363916;19;20037;-58
2022/10/06 05:09:04;;;;;;;0.00;0.00;;;;;;;13.12;71.53;101350.56;7365824;19;20018;-58
2022/10/06 05:11:30;;;;;;;0.00;0.00;;;;;;;13.10;71.33;101352.38;7364349;19;20002;-57
2022/10/06 05:13:58;;;;;;;0.00;0.00;;;;;;;13.12;71.61;101354.03;7366523;19;20025;-58
2022/10/06 05:16:26;;;;;;;0.00;0.00;;;;;;;13.12;71.69;101359.28;7362424;19;20057;-58
2022/10/06 05:18:51;;;;;;;0.00;0.00;;;;;;;13.02;71.46;101339.41;7363679;19;20015;-58
2022/10/06 05:21:23;;;;;;;0.00;0.00;;;;;;;13.12;71.58;101382.03;7364271;19;20108;-58
2022/10/06 05:23:49;;;;;;;0.00;0.00;;;;;;;13.11;71.52;101368.06;7365692;19;19998;-58
2022/10/06 05:26:18;;;;;;;0.00;0.00;;;;;;;13.12;71.39;101369.78;7364499;19;20012;-58
2022/10/06 05:28:44;;;;;;;0.00;0.00;;;;;;;13.12;71.66;101369.78;7364906;19;20614;-58
2022/10/06 05:31:22;;;;;;;0.00;0.00;;;;;;;13.14;71.04;101375.88;7364482;19;20026;-58
2022/10/06 05:33:48;;;;;;;0.00;0.00;;;;;;;13.11;71.19;101394.28;7363224;19;20014;-58
2022/10/06 05:36:22;;;;;;;0.00;0.00;;;;;;;13.12;71.61;101384.66;7364083;19;23038;-58
2022/10/06 05:38:47;;;;;;;0.00;0.00;;;;;;;13.06;71.98;101384.78;7364875;19;20425;-58
2022/10/06 05:41:16;;;;;;;0.00;0.00;;;;;;;13.09;71.84;101396.09;7364406;19;20019;-58
2022/10/06 05:43:42;;;;;;;0.00;0.00;;;;;;;13.06;71.65;101390.03;7362712;19;20010;-58
2022/10/06 05:46:16;;;;;;;0.00;0.00;;;;;;;13.07;72.48;101390.00;7363011;19;20010;-55
2022/10/06 05:48:45;;;;;;;0.00;0.00;;;;;;;13.07;72.49;101387.38;7364019;19;20003;-58
2022/10/06 05:51:11;;;;;;;0.00;0.00;;;;;;;13.07;72.41;101397.84;7363413;19;20398;-58
2022/10/06 05:53:36;;;;;;;0.00;0.00;;;;;;;13.10;72.28;101387.31;7362490;19;20015;-59
2022/10/06 05:56:17;;;;;;;0.00;0.00;;;;;;;13.14;72.18;101402.09;7362199;19;20780;-58
2022/10/06 05:58:44;;;;;;;0.00;0.00;;;;;;;13.16;72.37;101396.81;7354595;19;20003;-58
2022/10/06 06:01:17;;;;;;;0.00;0.00;;;;;;;13.18;72.55;101388.03;7370243;19;20679;-59
2022/10/06 06:03:47;;;;;;;0.00;0.00;;;;;;;13.21;72.56;101387.97;7364026;19;20010;-59
2022/10/06 06:06:24;;;;;;;0.00;0.00;;;;;;;13.23;73.03;101391.44;7365865;19;20003;-58
2022/10/06 06:09:16;;;;;;;0.00;0.00;;;;;;;13.28;72.67;101395.69;7367095;19;20627;-58
2022/10/06 06:11:47;;;;;;;0.00;0.00;;;;;;;13.29;72.74;101394.81;7264714;19;2004506;-58
2022/10/06 06:14:18;;;;;;;0.10;0.10;;;;;;;13.30;72.94;101399.16;7365894;19;20377;-58
2022/10/06 06:16:44;;;;;;;0.00;0.00;;;;;;;13.29;72.71;101402.69;7367264;19;20002;-57
2022/10/06 06:19:11;;;;;;;0.00;0.00;;;;;;;13.31;73.56;101432.34;7368644;19;20593;-59
2022/10/06 06:21:37;;;;;;;0.00;0.00;;;;;;;13.30;72.97;101420.16;7367382;19;20014;-58
2022/10/06 06:24:03;;;;;;;0.00;0.00;;;;;;;13.29;73.06;101423.66;7367877;19;20006;-58
2022/10/06 06:26:32;;;;;;;0.00;0.00;;;;;;;13.29;72.83;101436.78;7367924;19;20015;-58
2022/10/06 06:29:02;;;;;;;0.00;0.00;;;;;;;13.28;73.21;101440.28;7363721;19;20014;-58
2022/10/06 06:31:31;;;;;;;0.00;0.00;;;;;;;13.27;73.04;101436.78;7363425;19;20043;-58
2022/10/06 06:33:58;;;;;;;0.00;0.00;;;;;;;13.25;73.35;101438.59;7365942;19;24852;-59
2022/10/06 06:36:30;;;;;;;0.00;0.00;;;;;;;13.26;72.65;101444.72;7364429;19;20002;-58
2022/10/06 06:38:57;;;;;;;0.00;0.00;;;;;;;13.20;73.44;101436.03;7365062;19;20009;-57
2022/10/06 06:41:26;;;;;;;0.00;0.00;;;;;;;13.11;73.41;101425.75;7366897;19;20514;-58
2022/10/06 06:43:51;;;;;;;0.00;0.00;;;;;;;13.19;73.64;101431.69;7366280;19;20016;-58
2022/10/06 06:46:19;;;;;;;0.00;0.00;;;;;;;13.20;72.99;101441.28;7364660;19;20641;-58
2022/10/06 06:48:46;;;;;;;0.00;0.00;;;;;;;13.18;73.74;101445.72;7362094;19;20007;-58
2022/10/06 06:51:12;;;;;;;0.00;0.00;;;;;;;13.20;73.98;101440.44;7366445;19;20159;-59
2022/10/06 06:53:38;;;;;;;0.00;0.00;;;;;;;13.20;73.71;101441.28;7366046;19;20006;-58
2022/10/06 06:56:05;;;;;;;0.00;0.00;;;;;;;13.21;73.97;101452.63;7363375;19;20010;-59
2022/10/06 06:58:31;;;;;;;0.00;0.00;;;;;;;13.16;74.33;101433.53;7358495;19;20046;-57
2022/10/06 07:01:10;;;;;;;0.00;0.00;;;;;;;13.33;73.87;101456.78;7354709;19;20014;-58
2022/10/06 07:03:38;;;;;;;0.00;0.00;;;;;;;13.33;74.22;101446.28;7350327;19;20034;-58
2022/10/06 07:06:08;;;;;;;0.00;0.00;;;;;;;13.38;74.39;101452.28;7359017;19;20113;-58
2022/10/06 07:08:41;;;;;;;0.00;0.00;;;;;;;13.44;73.84;101449.56;7360121;19;20492;-58
2022/10/06 07:11:18;;;;;;;0.00;0.00;;;;;;;13.48;73.96;101457.34;7356243;19;20086;-59
2022/10/06 07:13:45;;;;;;;0.00;0.00;;;;;;;13.49;74.06;101459.06;7360789;19;20017;-59
2022/10/06 07:25:24;;;;;;;0.00;0.00;;;;;;;13.76;73.92;101452.28;7144245;19;2005336;-57
2022/10/06 07:27:52;;;;;;;0.00;0.00;;;;;;;13.79;73.65;101456.63;7354593;19;20681;-57
2022/10/06 07:30:20;;;;;;;0.10;0.10;;;;;;;13.84;73.52;101464.34;7357453;19;20040;-58
2022/10/06 07:32:48;;;;;;;0.00;0.00;;;;;;;13.86;73.81;101480.94;7359013;19;20018;-58
2022/10/06 07:35:15;;;;;;;0.03;0.03;;;;;;;13.88;73.81;101471.25;7355096;19;20007;-58
2022/10/06 07:37:41;;;;;;;0.08;0.08;;;;;;;13.91;73.51;101481.69;7357685;19;20006;-58
2022/10/06 07:40:08;;;;;;;0.00;0.00;;;;;;;13.85;73.74;101471.34;7359047;19;22255;-57
2022/10/06 07:42:46;;;;;;;0.00;0.00;;;;;;;13.97;73.58;101492.06;7357303;19;20365;-59
2022/10/06 07:45:37;;;;;;;0.00;0.00;;;;;;;14.01;73.87;101489.31;7359483;19;20006;-58
2022/10/06 07:48:09;;;;;;;0.00;0.00;;;;;;;14.05;73.55;101495.38;7258773;19;2004426;-58
2022/10/06 07:50:37;;;;;;;0.00;0.00;;;;;;;14.06;73.75;101497.09;7358944;19;20006;-58
2022/10/06 07:53:07;;;;;;;0.00;0.00;;;;;;;14.03;73.84;101487.50;7359744;19;20332;-59
2022/10/06 07:55:34;;;;;;;0.00;0.00;;;;;;;14.10;73.72;101496.13;7358696;19;20021;-58
2022/10/06 07:57:59;;;;;;;0.00;0.00;;;;;;;14.11;74.03;101510.97;7358937;19;20013;-58
2022/10/06 08:00:25;;;;;;;0.00;0.00;;;;;;;14.13;73.72;101513.56;7359502;19;20006;-58
2022/10/06 08:02:53;;;;;;;0.00;0.00;;;;;;;14.13;74.01;101501.28;7359041;19;20034;-59
2022/10/06 08:05:18;;;;;;;0.00;0.00;;;;;;;14.13;73.95;101501.28;7357086;19;21290;-58
2022/10/06 08:07:44;;;;;;;0.00;0.00;;;;;;;14.13;73.95;101503.03;7357733;19;20007;-58
2022/10/06 08:10:09;;;;;;;0.00;0.00;;;;;;;14.11;74.17;101510.97;7358290;19;20006;-59
2022/10/06 08:12:39;;;;;;;0.10;0.10;;;;;;;14.14;74.00;101510.91;7358510;19;20689;-58
2022/10/06 08:15:06;;;;;;;0.00;0.00;;;;;;;14.19;74.67;101500.25;7359071;19;20031;-59
2022/10/06 08:17:33;;;;;;;0.00;0.00;;;;;;;14.21;74.49;101487.97;7354966;19;20534;-59
2022/10/06 08:19:58;;;;;;;0.00;0.00;;;;;;;14.35;74.49;101503.41;7358025;19;20018;-58
2022/10/06 08:22:28;;;;;;;0.00;0.00;;;;;;;14.39;74.14;101495.38;7356607;19;20017;-57
2022/10/06 08:24:57;;;;;;;0.00;0.00;;;;;;;14.51;74.30;101488.97;7357299;19;20010;-56
2022/10/06 08:27:26;;;;;;;0.10;0.10;;;;;;;14.75;74.25;101508.47;7358341;19;20026;-59
2022/10/06 08:29:51;;;;;;;0.00;0.00;;;;;;;14.88;74.20;101514.28;7357847;19;20028;-59
2022/10/06 08:32:18;;;;;;;0.00;0.00;;;;;;;15.00;73.49;101513.91;7357857;19;22360;-59
2022/10/06 08:34:44;;;;;;;0.00;0.00;;;;;;;15.10;73.40;101512.75;7356965;19;20077;-59
2022/10/06 08:37:09;;;;;;;0.00;0.00;;;;;;;15.19;73.23;101509.00;7356788;19;20003;-58
2022/10/06 08:39:35;;;;;;;0.00;0.00;;;;;;;15.24;72.79;101513.22;7356481;19;20002;-58
2022/10/06 08:42:00;;;;;;;0.00;0.00;;;;;;;15.24;73.01;101513.22;7357585;19;20015;-59
2022/10/06 08:44:34;;;;;;;0.00;0.00;;;;;;;15.35;72.96;101504.16;7356099;19;20014;-58
2022/10/06 08:47:01;;;;;;;0.00;0.00;;;;;;;15.28;72.65;101512.22;7356809;19;20022;-59
2022/10/06 08:49:37;;;;;;;0.00;0.00;;;;;;;15.28;72.27;101504.34;7355396;19;20141;-57
2022/10/06 08:52:09;;;;;;;0.00;0.00;;;;;;;15.26;72.62;101515.84;7353216;19;20007;-57
2022/10/06 08:54:55;;;;;;;0.10;0.10;;;;;;;15.25;72.48;101499.16;7354788;19;20002;-58
2022/10/06 08:57:32;;;;;;;0.00;0.00;;;;;;;15.28;72.97;101514.88;7352460;19;20002;-58
2022/10/06 08:59:58;;;;;;;0.00;0.00;;;;;;;15.27;72.91;101507.03;7352433;19;20037;-58
2022/10/06 09:02:37;;;;;;;0.00;0.00;;;;;;;15.37;72.74;101507.63;7357297;19;20517;-58
2022/10/06 09:05:05;;;;;;;0.00;0.00;;;;;;;15.47;73.11;101514.34;7355653;19;20026;-58
2022/10/06 09:08:02;;;;;;;0.00;0.00;;;;;;;15.61;73.26;101496.31;7356301;19;20006;-58
2022/10/06 09:10:31;;;;;;;0.00;0.00;;;;;;;15.79;73.48;101493.16;7255591;19;2004343;-58
2022/10/06 09:13:02;;;;;;;0.10;0.10;;;;;;;15.83;72.22;101486.88;7354835;19;20011;-58
2022/10/06 09:15:49;;;;;;;0.00;0.00;;;;;;;15.98;72.30;101500.47;7356806;19;20009;-57
2022/10/06 09:18:24;;;;;;;0.00;0.00;;;;;;;16.04;72.45;101495.88;7355553;19;20685;-58
2022/10/06 09:20:53;;;;;;;0.00;0.00;;;;;;;16.06;72.20;101498.44;7355749;19;20027;-59
2022/10/06 09:23:46;;;;;;;0.10;0.10;;;;;;;16.18;72.67;101497.19;7353607;19;20856;-58
2022/10/06 09:26:04;;;;;;;0.00;0.00;;;;;;;16.44;72.20;101494.53;7355136;19;20006;-59
2022/10/06 09:28:30;;;;;;;0.00;0.00;;;;;;;16.67;72.10;101498.13;7354764;19;20075;-57
2022/10/06 09:30:56;;;;;;;0.00;0.00;;;;;;;16.90;72.28;101495.56;7357048;19;20566;-57
2022/10/06 09:33:24;;;;;;;0.00;0.00;;;;;;;17.11;71.61;101502.69;7353557;19;20775;-58
2022/10/06 09:36:11;;;;;;;0.00;0.00;;;;;;;17.34;71.33;101504.50;7367089;19;20006;-58
2022/10/06 09:38:52;;;;;;;0.00;0.00;;;;;;;17.45;71.09;101511.13;7368126;19;19998;-58
2022/10/06 09:41:23;;;;;;;0.00;0.00;;;;;;;17.49;70.59;101518.03;7369758;19;20471;-59
2022/10/06 09:43:55;;;;;;;0.10;0.10;;;;;;;17.56;69.65;101524.78;7370641;19;20761;-59
2022/10/06 09:46:29;;;;;;;0.00;0.00;;;;;;;17.62;69.33;101506.91;7369615;19;20064;-58
2022/10/06 09:49:30;;;;;;;0.00;0.00;;;;;;;17.71;69.71;101512.75;7369737;19;20013;-57
2022/10/06 09:52:15;;;;;;;0.00;0.00;;;;;;;17.70;69.35;101535.69;7264212;19;2004132;-58
2022/10/06 09:54:42;;;;;;;0.00;0.00;;;;;;;17.63;68.15;101526.25;7369238;19;20097;-58
2022/10/06 09:57:19;;;;;;;0.00;0.00;;;;;;;17.67;67.96;101527.88;7369211;19;20021;-58
2022/10/06 09:59:46;;;;;;;0.00;0.00;;;;;;;17.61;67.54;101549.25;7367650;19;20014;-58
2022/10/06 10:02:29;;;;;;;0.10;0.10;;;;;;;17.61;67.88;101533.38;7369058;19;20011;-59
2022/10/06 10:04:56;;;;;;;0.00;0.00;;;;;;;17.49;67.47;101539.16;7366631;19;20002;-58
2022/10/06 10:07:27;;;;;;;0.10;0.10;;;;;;;17.40;67.98;101547.41;7367143;19;20014;-58
2022/10/06 10:10:08;;;;;;;0.05;0.05;;;;;;;17.30;68.40;101542.47;7369364;19;20019;-58
2022/10/06 10:12:34;;;;;;;0.00;0.00;;;;;;;17.10;68.86;101524.72;7369064;19;20484;-57
2022/10/06 10:15:19;;;;;;;0.00;0.00;;;;;;;17.18;68.66;101534.13;7368645;19;21273;-58
2022/10/06 10:18:04;;;;;;;0.00;0.00;;;;;;;17.11;69.56;101534.38;7368915;19;20097;-58
2022/10/06 10:20:49;;;;;;;0.00;0.00;;;;;;;17.04;69.83;101532.03;7367918;19;20640;-58
2022/10/06 10:23:22;;;;;;;0.00;0.00;;;;;;;17.01;69.84;101537.41;7369634;19;20026;-59
2022/10/06 10:26:20;;;;;;;0.00;0.00;;;;;;;17.05;69.89;101529.31;7368055;19;20030;-58
2022/10/06 10:29:03;;;;;;;0.00;0.00;;;;;;;17.03;70.62;101530.28;7263584;19;2004228;-58
2022/10/06 10:31:50;;;;;;;0.00;0.00;;;;;;;17.13;70.16;101518.47;7367439;19;20010;-58
2022/10/06 10:34:37;;;;;;;0.00;0.00;;;;;;;17.15;70.20;101519.28;7368182;19;20013;-59
2022/10/06 10:37:23;;;;;;;0.10;0.10;;;;;;;17.18;69.73;101513.03;7366069;19;20018;-59
2022/10/06 10:40:30;;;;;;;0.00;0.00;;;;;;;17.24;70.04;101512.81;7368066;19;20011;-58
2022/10/06 10:43:32;;;;;;;0.00;0.00;;;;;;;17.28;70.55;101517.91;7265965;19;2004346;-59
2022/10/06 10:46:08;;;;;;;0.10;0.10;;;;;;;17.43;70.13;101507.69;7256921;19;2004205;-59
2022/10/06 10:48:50;;;;;;;0.00;0.00;;;;;;;17.57;70.24;101500.09;7354791;19;20017;-58
2022/10/06 10:51:39;;;;;;;0.10;0.10;;;;;;;17.67;70.30;101500.59;7353798;19;20886;-59
2022/10/06 10:54:26;;;;;;;0.10;0.10;;;;;;;17.81;70.78;101499.16;7361398;19;20869;-59
2022/10/06 10:56:52;;;;;;;0.08;0.08;;;;;;;17.94;69.95;101501.28;7360385;19;20010;-58
2022/10/06 10:59:24;;;;;;;0.00;0.00;;;;;;;18.19;70.48;101504.66;7358635;19;20133;-58
2022/10/06 11:02:03;;;;;;;0.00;0.00;;;;;;;18.43;69.60;101497.47;7360020;19;20118;-58
2022/10/06 11:04:29;;;;;;;0.00;0.00;;;;;;;18.59;68.48;101502.97;7357423;19;20109;-58
2022/10/06 11:06:58;;;;;;;0.00;0.00;;;;;;;18.71;67.69;101494.53;7359387;19;20022;-59
2022/10/06 11:09:54;;;;;;;0.00;0.00;;;;;;;18.93;68.09;101495.28;7359647;19;20462;-59
2022/10/06 11:12:48;;;;;;;0.00;0.00;;;;;;;19.05;67.62;101487.72;7257460;19;2004557;-58
2022/10/06 11:15:52;;;;;;;0.00;0.00;;;;;;;19.19;68.14;101487.97;7357120;19;20034;-57
2022/10/06 11:18:37;;;;;;;0.00;0.00;;;;;;;19.32;66.92;101483.81;7252222;19;2004137;-58
2022/10/06 11:21:16;;;;;;;0.10;0.10;;;;;;;19.42;66.60;101490.41;7354558;19;20040;-59
2022/10/06 11:23:48;;;;;;;0.00;0.00;;;;;;;19.55;65.53;101482.72;7356332;19;20077;-58
2022/10/06 11:26:34;;;;;;;0.03;0.03;;;;;;;19.75;65.95;101487.09;7359007;19;20010;-59
2022/10/06 11:29:09;;;;;;;0.00;0.00;;;;;;;20.02;66.51;101478.72;7358299;19;20711;-59
2022/10/06 11:31:40;;;;;;;0.00;0.00;;;;;;;20.11;64.09;101467.66;7353215;19;20105;-59
2022/10/06 11:34:07;;;;;;;0.10;0.10;;;;;;;20.12;63.67;101469.38;7359264;19;20010;-59
2022/10/06 11:36:53;;;;;;;0.05;0.05;;;;;;;20.21;63.63;101479.50;7359068;19;20057;-58
2022/10/06 11:39:21;;;;;;;0.10;0.10;;;;;;;20.27;63.30;101475.69;7359386;19;20002;-59
2022/10/06 11:41:53;;;;;;;0.08;0.08;;;;;;;20.24;62.10;101471.41;7354796;19;20086;-59
2022/10/06 11:44:32;;;;;;;0.10;0.10;;;;;;;20.22;62.01;101481.22;7359556;19;20043;-57
2022/10/06 11:47:13;;;;;;;0.10;0.10;;;;;;;20.18;62.69;101479.69;7358455;19;20690;-59
2022/10/06 11:49:52;;;;;;;0.10;0.10;;;;;;;20.13;62.31;101479.06;7359688;19;20042;-58